createdAt,value
2024-04-26T00:00:10.477Z,6.25
2024-04-26T00:01:10.480Z,6.19
2024-04-26T00:02:10.471Z,6.25
2024-04-26T00:03:10.530Z,6.25
2024-04-26T00:04:10.467Z,6.21
2024-04-26T00:05:10.439Z,6.19
2024-04-26T00:06:10.430Z,6.18
2024-04-26T00:07:10.461Z,6.17
2024-04-26T00:08:10.404Z,6.19
2024-04-26T00:09:10.377Z,6.14
2024-04-26T00:10:10.429Z,6.09
2024-04-26T00:11:10.351Z,6.12
2024-04-26T00:12:10.433Z,6.11
2024-04-26T00:13:10.337Z,6.11
2024-04-26T00:14:10.357Z,6.12
2024-04-26T00:15:10.316Z,6.15
2024-04-26T00:16:10.332Z,6.17
2024-04-26T00:17:10.312Z,6.14
2024-04-26T00:18:10.396Z,6.12
2024-04-26T00:19:10.268Z,6.14
2024-04-26T00:20:10.285Z,6.17
2024-04-26T00:21:10.255Z,6.15
2024-04-26T00:22:10.261Z,6.14
2024-04-26T00:23:10.230Z,6.14
2024-04-26T00:24:10.230Z,6.17
2024-04-26T00:25:10.212Z,6.18
2024-04-26T00:26:10.227Z,6.19
2024-04-26T00:27:10.455Z,6.22
2024-04-26T00:28:10.195Z,6.25
2024-04-26T00:29:10.188Z,6.22
2024-04-26T00:30:10.229Z,6.27
2024-04-26T00:31:10.161Z,6.27
2024-04-26T00:32:10.197Z,6.30
2024-04-26T00:33:10.238Z,6.28
2024-04-26T00:34:10.167Z,6.21
2024-04-26T00:35:10.125Z,6.25
2024-04-26T00:36:10.098Z,6.27
2024-04-26T00:37:10.109Z,6.22
2024-04-26T00:38:10.111Z,6.27
2024-04-26T00:39:10.131Z,6.22
2024-04-26T00:40:10.076Z,6.22
2024-04-26T00:41:10.061Z,6.25
2024-04-26T00:42:10.094Z,6.25
2024-04-26T00:43:10.056Z,6.25
2024-04-26T00:44:10.055Z,6.25
2024-04-26T00:45:10.024Z,6.25
2024-04-26T00:46:10.024Z,6.21
2024-04-26T00:47:10.013Z,6.25
2024-04-26T00:48:10.109Z,6.28
2024-04-26T00:49:10.081Z,6.27
2024-04-26T00:50:09.976Z,6.30
2024-04-26T00:51:09.956Z,6.28
2024-04-26T00:52:09.953Z,6.28
2024-04-26T00:53:09.937Z,6.30
2024-04-26T00:54:09.940Z,6.30
2024-04-26T00:55:09.917Z,6.27
2024-04-26T00:56:09.898Z,6.27
2024-04-26T00:57:09.901Z,6.28
2024-04-26T00:58:09.884Z,6.27
2024-04-26T00:59:09.867Z,6.21
2024-04-26T01:00:09.852Z,6.18
2024-04-26T01:01:09.930Z,6.19
2024-04-26T01:02:09.922Z,6.21
2024-04-26T01:03:09.831Z,6.22
2024-04-26T01:04:09.860Z,6.22
2024-04-26T01:05:09.833Z,6.21
2024-04-26T01:06:09.814Z,6.25
2024-04-26T01:07:09.798Z,6.25
2024-04-26T01:08:13.614Z,6.27
2024-04-26T01:09:09.794Z,6.27
2024-04-26T01:10:09.749Z,6.30
2024-04-26T01:11:09.833Z,6.34
2024-04-26T01:12:09.794Z,6.28
2024-04-26T01:13:09.728Z,6.27
2024-04-26T01:14:09.701Z,6.22
2024-04-26T01:15:09.731Z,6.21
2024-04-26T01:16:09.696Z,6.21
2024-04-26T01:17:09.724Z,6.22
2024-04-26T01:18:09.737Z,6.19
2024-04-26T01:19:09.734Z,6.21
2024-04-26T01:20:09.648Z,6.19
2024-04-26T01:21:09.633Z,6.19
2024-04-26T01:22:09.659Z,6.18
2024-04-26T01:23:09.630Z,6.21
2024-04-26T01:24:09.602Z,6.22
2024-04-26T01:25:09.614Z,6.21
2024-04-26T01:26:09.588Z,6.22
2024-04-26T01:27:09.599Z,6.25
2024-04-26T01:28:09.563Z,6.28
2024-04-26T01:29:09.551Z,6.28
2024-04-26T01:30:09.539Z,6.31
2024-04-26T01:31:09.540Z,6.31
2024-04-26T01:32:09.567Z,6.25
2024-04-26T01:33:09.654Z,6.27
2024-04-26T01:34:09.528Z,6.21
2024-04-26T01:35:09.515Z,6.18
2024-04-26T01:36:09.541Z,6.18
2024-04-26T01:37:09.509Z,6.18
2024-04-26T01:38:09.454Z,6.15
2024-04-26T01:39:09.497Z,6.17
2024-04-26T01:40:09.433Z,6.14
2024-04-26T01:41:09.423Z,6.18
2024-04-26T01:42:09.472Z,6.27
2024-04-26T01:43:09.442Z,6.22
2024-04-26T01:44:09.393Z,6.22
2024-04-26T01:45:09.465Z,6.22
2024-04-26T01:46:09.462Z,6.25
2024-04-26T01:47:09.390Z,6.30
2024-04-26T01:48:09.619Z,6.25
2024-04-26T01:49:09.362Z,6.28
2024-04-26T01:50:09.349Z,6.30
2024-04-26T01:51:09.351Z,6.30
2024-04-26T01:52:09.336Z,6.33
2024-04-26T01:53:09.318Z,6.34
2024-04-26T01:54:09.327Z,6.37
2024-04-26T01:55:09.318Z,6.38
2024-04-26T01:56:09.284Z,6.40
2024-04-26T01:57:09.301Z,6.43
2024-04-26T01:58:09.290Z,6.44
2024-04-26T01:59:09.249Z,6.44
2024-04-26T02:00:09.276Z,6.43
2024-04-26T02:01:09.261Z,6.46
2024-04-26T02:02:09.264Z,6.48
2024-04-26T02:03:09.372Z,6.52
2024-04-26T02:04:09.285Z,6.52
2024-04-26T02:05:09.181Z,6.55
2024-04-26T02:06:09.259Z,6.55
2024-04-26T02:07:09.191Z,6.58
2024-04-26T02:08:09.157Z,6.61
2024-04-26T02:09:09.230Z,6.56
2024-04-26T02:10:09.118Z,6.56
2024-04-26T02:11:09.161Z,6.58
2024-04-26T02:12:09.146Z,6.62
2024-04-26T02:13:09.103Z,6.64
2024-04-26T02:14:09.086Z,6.62
2024-04-26T02:15:09.135Z,6.64
2024-04-26T02:16:09.064Z,6.64
2024-04-26T02:17:09.189Z,6.69
2024-04-26T02:18:09.151Z,6.67
2024-04-26T02:19:09.154Z,6.69
2024-04-26T02:20:09.024Z,6.71
2024-04-26T02:21:09.116Z,6.69
2024-04-26T02:22:09.039Z,6.70
2024-04-26T02:23:08.998Z,6.70
2024-04-26T02:24:09.074Z,6.73
2024-04-26T02:25:08.976Z,6.74
2024-04-26T02:26:08.967Z,6.77
2024-04-26T02:27:09.099Z,6.77
2024-04-26T02:28:08.938Z,6.81
2024-04-26T02:29:08.936Z,6.79
2024-04-26T02:30:08.990Z,6.80
2024-04-26T02:31:08.912Z,6.87
2024-04-26T02:32:08.981Z,6.79
2024-04-26T02:33:09.016Z,6.80
2024-04-26T02:34:08.973Z,6.80
2024-04-26T02:35:08.866Z,6.80
2024-04-26T02:36:09.032Z,6.80
2024-04-26T02:37:08.878Z,6.81
2024-04-26T02:38:08.851Z,6.85
2024-04-26T02:39:08.972Z,6.80
2024-04-26T02:40:08.819Z,6.84
2024-04-26T02:41:08.804Z,6.80
2024-04-26T02:42:08.848Z,6.79
2024-04-26T02:43:08.778Z,6.77
2024-04-26T02:44:08.771Z,6.76
2024-04-26T02:45:08.835Z,6.76
2024-04-26T02:46:08.778Z,6.77
2024-04-26T02:47:08.879Z,6.84
2024-04-26T02:48:08.852Z,6.84
2024-04-26T02:49:08.792Z,6.81
2024-04-26T02:50:08.703Z,6.85
2024-04-26T02:51:08.837Z,6.88
2024-04-26T02:52:08.692Z,6.85
2024-04-26T02:53:08.698Z,6.84
2024-04-26T02:54:08.717Z,6.80
2024-04-26T02:55:08.662Z,6.87
2024-04-26T02:56:08.662Z,6.88
2024-04-26T02:57:08.709Z,6.87
2024-04-26T02:58:08.639Z,6.85
2024-04-26T02:59:08.635Z,6.84
2024-04-26T03:00:08.772Z,6.84
2024-04-26T03:01:08.624Z,6.79
2024-04-26T03:02:08.626Z,6.79
2024-04-26T03:03:08.680Z,6.77
2024-04-26T03:04:08.581Z,6.74
2024-04-26T03:05:08.561Z,6.76
2024-04-26T03:06:08.639Z,6.76
2024-04-26T03:07:08.557Z,6.73
2024-04-26T03:08:08.556Z,6.69
2024-04-26T03:09:08.641Z,6.71
2024-04-26T03:10:08.529Z,6.70
2024-04-26T03:11:08.537Z,6.71
2024-04-26T03:12:08.570Z,6.69
2024-04-26T03:13:08.503Z,6.70
2024-04-26T03:14:08.454Z,6.66
2024-04-26T03:15:08.510Z,6.69
2024-04-26T03:16:08.499Z,6.66
2024-04-26T03:17:08.471Z,6.66
2024-04-26T03:18:08.610Z,6.62
2024-04-26T03:19:08.482Z,6.64
2024-04-26T03:20:08.409Z,6.61
2024-04-26T03:21:08.541Z,6.66
2024-04-26T03:22:08.387Z,6.64
2024-04-26T03:23:08.388Z,6.61
2024-04-26T03:24:08.452Z,6.61
2024-04-26T03:25:08.351Z,6.58
2024-04-26T03:26:08.370Z,6.56
2024-04-26T03:27:08.449Z,6.58
2024-04-26T03:28:08.342Z,6.52
2024-04-26T03:29:08.329Z,6.54
2024-04-26T03:30:08.422Z,6.49
2024-04-26T03:31:08.335Z,6.49
2024-04-26T03:32:08.352Z,6.44
2024-04-26T03:33:08.470Z,6.41
2024-04-26T03:34:08.297Z,6.41
2024-04-26T03:35:08.416Z,6.43
2024-04-26T03:36:08.758Z,6.40
2024-04-26T03:37:08.233Z,6.41
2024-04-26T03:38:08.219Z,6.36
2024-04-26T03:39:08.383Z,6.37
2024-04-26T03:40:08.241Z,6.33
2024-04-26T03:41:08.189Z,6.36
2024-04-26T03:42:08.287Z,6.28
2024-04-26T03:43:08.191Z,6.22
2024-04-26T03:44:08.179Z,6.25
2024-04-26T03:45:08.226Z,6.19
2024-04-26T03:46:08.150Z,6.18
2024-04-26T03:47:08.156Z,6.18
2024-04-26T03:48:08.350Z,6.15
2024-04-26T03:49:08.373Z,6.12
2024-04-26T03:50:08.107Z,6.09
2024-04-26T03:51:08.126Z,6.06
2024-04-26T03:52:08.068Z,6.04
2024-04-26T03:53:08.055Z,6.03
2024-04-26T03:54:08.112Z,6.03
2024-04-26T03:55:08.049Z,6.04
2024-04-26T03:56:08.036Z,6.03
2024-04-26T03:57:08.123Z,6.03
2024-04-26T03:58:08.033Z,6.03
2024-04-26T03:59:08.037Z,6.03
2024-04-26T04:00:08.112Z,6.01
2024-04-26T04:01:08.015Z,6.03
2024-04-26T04:02:07.960Z,6.04
2024-04-26T04:03:08.151Z,6.01
2024-04-26T04:04:08.098Z,5.99
2024-04-26T04:05:07.974Z,5.99
2024-04-26T04:06:08.117Z,5.96
2024-04-26T04:07:07.917Z,5.96
2024-04-26T04:08:07.929Z,5.93
2024-04-26T04:09:08.101Z,5.93
2024-04-26T04:10:07.891Z,5.91
2024-04-26T04:11:07.931Z,5.94
2024-04-26T04:12:07.942Z,5.96
2024-04-26T04:13:07.930Z,6.00
2024-04-26T04:14:07.882Z,6.01
2024-04-26T04:15:07.932Z,6.01
2024-04-26T04:16:07.814Z,6.01
2024-04-26T04:17:07.850Z,5.90
2024-04-26T04:18:07.850Z,5.86
2024-04-26T04:19:07.854Z,5.89
2024-04-26T04:20:07.797Z,5.85
2024-04-26T04:21:07.845Z,5.83
2024-04-26T04:22:07.759Z,5.90
2024-04-26T04:23:07.753Z,5.93
2024-04-26T04:24:07.834Z,5.96
2024-04-26T04:25:07.762Z,6.00
2024-04-26T04:26:07.733Z,6.06
2024-04-26T04:27:07.760Z,6.11
2024-04-26T04:28:07.706Z,6.15
2024-04-26T04:29:07.697Z,6.18
2024-04-26T04:30:07.736Z,6.22
2024-04-26T04:31:07.671Z,6.30
2024-04-26T04:32:08.447Z,6.34
2024-04-26T04:33:07.837Z,6.36
2024-04-26T04:34:07.733Z,6.44
2024-04-26T04:35:07.641Z,6.44
2024-04-26T04:36:07.740Z,6.49
2024-04-26T04:37:07.637Z,6.52
2024-04-26T04:38:07.600Z,6.54
2024-04-26T04:39:07.641Z,6.54
2024-04-26T04:40:07.596Z,6.58
2024-04-26T04:41:07.572Z,6.61
2024-04-26T04:42:07.641Z,6.64
2024-04-26T04:43:07.542Z,6.67
2024-04-26T04:44:07.546Z,6.70
2024-04-26T04:45:07.610Z,6.73
2024-04-26T04:46:07.506Z,6.80
2024-04-26T04:47:07.526Z,6.79
2024-04-26T04:48:07.564Z,6.87
2024-04-26T04:49:07.570Z,6.91
2024-04-26T04:50:07.501Z,6.98
2024-04-26T04:51:07.543Z,7.12
2024-04-26T04:52:07.458Z,7.32
2024-04-26T04:53:07.443Z,7.79
2024-04-26T04:54:07.528Z,8.38
2024-04-26T04:55:07.433Z,8.94
2024-04-26T04:56:07.424Z,9.51
2024-04-26T04:57:07.426Z,10.07
2024-04-26T04:58:07.397Z,10.67
2024-04-26T04:59:09.145Z,11.18
2024-04-26T05:00:07.572Z,11.06
2024-04-26T05:01:07.442Z,10.82
2024-04-26T05:02:07.350Z,10.67
2024-04-26T05:03:07.501Z,10.55
2024-04-26T05:04:07.591Z,10.36
2024-04-26T05:05:07.395Z,10.22
2024-04-26T05:06:07.448Z,10.09
2024-04-26T05:07:07.352Z,9.93
2024-04-26T05:08:07.284Z,9.93
2024-04-26T05:09:07.329Z,9.91
2024-04-26T05:10:07.359Z,10.02
2024-04-26T05:11:07.250Z,10.12
2024-04-26T05:12:07.321Z,10.38
2024-04-26T05:13:07.242Z,10.66
2024-04-26T05:14:07.243Z,10.84
2024-04-26T05:15:07.368Z,11.11
2024-04-26T05:16:07.261Z,11.62
2024-04-26T05:17:07.238Z,12.12
2024-04-26T05:18:07.337Z,12.57
2024-04-26T05:19:07.436Z,13.25
2024-04-26T05:20:07.189Z,13.91
2024-04-26T05:21:07.349Z,14.52
2024-04-26T05:22:07.139Z,15.01
2024-04-26T05:23:07.132Z,15.41
2024-04-26T05:24:07.267Z,15.50
2024-04-26T05:25:07.139Z,15.49
2024-04-26T05:26:07.116Z,15.19
2024-04-26T05:27:07.186Z,14.83
2024-04-26T05:28:07.070Z,14.51
2024-04-26T05:29:07.064Z,14.12
2024-04-26T05:30:07.178Z,13.78
2024-04-26T05:31:07.044Z,13.48
2024-04-26T05:32:07.063Z,13.20
2024-04-26T05:33:07.353Z,13.04
2024-04-26T05:34:07.084Z,12.89
2024-04-26T05:35:07.021Z,13.00
2024-04-26T05:36:07.092Z,13.28
2024-04-26T05:37:07.025Z,13.75
2024-04-26T05:38:06.977Z,13.96
2024-04-26T05:39:07.078Z,14.09
2024-04-26T05:40:07.043Z,14.25
2024-04-26T05:41:06.964Z,14.28
2024-04-26T05:42:07.932Z,14.68
2024-04-26T05:43:06.916Z,15.09
2024-04-26T05:44:06.917Z,15.53
2024-04-26T05:45:07.092Z,16.17
2024-04-26T05:46:06.896Z,16.70
2024-04-26T05:47:06.981Z,17.07
2024-04-26T05:48:07.033Z,16.67
2024-04-26T05:49:06.965Z,16.25
2024-04-26T05:50:09.142Z,16.52
2024-04-26T05:51:07.098Z,16.81
2024-04-26T05:52:06.847Z,16.97
2024-04-26T05:53:06.820Z,17.06
2024-04-26T05:54:06.984Z,17.19
2024-04-26T05:55:06.809Z,17.63
2024-04-26T05:56:06.771Z,17.78
2024-04-26T05:57:07.996Z,18.03
2024-04-26T05:58:06.775Z,18.29
2024-04-26T05:59:06.748Z,18.60
2024-04-26T06:00:06.866Z,18.91
2024-04-26T06:01:06.821Z,19.25
2024-04-26T06:02:06.756Z,19.78
2024-04-26T06:03:06.897Z,20.21
2024-04-26T06:04:06.850Z,20.62
2024-04-26T06:05:06.944Z,20.92
2024-04-26T06:06:06.667Z,20.97
2024-04-26T06:07:09.336Z,21.13
2024-04-26T06:08:06.647Z,21.17
2024-04-26T06:09:06.766Z,21.12
2024-04-26T06:10:06.656Z,21.13
2024-04-26T06:11:06.731Z,21.49
2024-04-26T06:12:06.626Z,21.68
2024-04-26T06:13:17.132Z,21.83
2024-04-26T06:14:06.642Z,22.09
2024-04-26T06:15:06.707Z,22.14
2024-04-26T06:16:06.585Z,22.31
2024-04-26T06:17:06.624Z,22.52
2024-04-26T06:18:06.656Z,22.60
2024-04-26T06:19:06.741Z,22.82
2024-04-26T06:20:06.556Z,22.97
2024-04-26T06:21:06.574Z,22.95
2024-04-26T06:22:06.510Z,22.82
2024-04-26T06:23:06.504Z,22.79
2024-04-26T06:24:06.622Z,22.97
2024-04-26T06:25:06.527Z,23.25
2024-04-26T06:26:06.468Z,23.53
2024-04-26T06:27:06.559Z,23.73
2024-04-26T06:28:06.476Z,23.98
2024-04-26T06:29:06.427Z,24.20
2024-04-26T06:30:06.429Z,24.31
2024-04-26T06:31:06.421Z,24.52
2024-04-26T06:32:06.451Z,24.57
2024-04-26T06:33:06.567Z,24.61
2024-04-26T06:34:06.576Z,24.50
2024-04-26T06:35:07.641Z,24.42
2024-04-26T06:36:06.427Z,23.93
2024-04-26T06:37:06.365Z,23.75
2024-04-26T06:38:06.333Z,23.57
2024-04-26T06:39:06.380Z,23.09
2024-04-26T06:40:06.342Z,22.77
2024-04-26T06:41:06.312Z,22.46
2024-04-26T06:42:06.419Z,22.15
2024-04-26T06:43:06.309Z,21.88
2024-04-26T06:44:17.464Z,21.69
2024-04-26T06:45:06.353Z,21.40
2024-04-26T06:46:06.439Z,21.10
2024-04-26T06:47:06.296Z,20.82
2024-04-26T06:48:06.402Z,20.47
2024-04-26T06:49:06.407Z,20.11
2024-04-26T06:50:06.323Z,19.78
2024-04-26T06:51:06.332Z,19.48
2024-04-26T06:52:06.186Z,19.16
2024-04-26T06:53:06.177Z,18.54
2024-04-26T06:54:06.273Z,18.26
2024-04-26T06:55:06.188Z,18.11
2024-04-26T06:56:06.147Z,17.90
2024-04-26T06:57:06.173Z,17.75
2024-04-26T06:58:06.142Z,17.70
2024-04-26T06:59:06.142Z,17.41
2024-04-26T07:00:06.164Z,17.37
2024-04-26T07:01:08.228Z,17.43
2024-04-26T07:02:06.278Z,17.49
2024-04-26T07:03:06.247Z,17.49
2024-04-26T07:04:06.360Z,17.54
2024-04-26T07:05:06.186Z,17.59
2024-04-26T07:06:06.075Z,17.71
2024-04-26T07:07:06.047Z,17.79
2024-04-26T07:08:06.004Z,18.00
2024-04-26T07:09:06.063Z,18.25
2024-04-26T07:10:06.030Z,18.45
2024-04-26T07:11:06.046Z,18.60
2024-04-26T07:12:06.097Z,18.75
2024-04-26T07:13:05.988Z,18.82
2024-04-26T07:14:05.966Z,18.76
2024-04-26T07:15:06.022Z,18.69
2024-04-26T07:16:13.173Z,18.62
2024-04-26T07:17:05.968Z,18.37
2024-04-26T07:18:06.041Z,18.17
2024-04-26T07:19:05.995Z,18.12
2024-04-26T07:20:05.977Z,18.00
2024-04-26T07:21:05.944Z,17.78
2024-04-26T07:22:05.904Z,17.48
2024-04-26T07:23:05.847Z,17.23
2024-04-26T07:24:05.878Z,17.03
2024-04-26T07:25:05.836Z,16.81
2024-04-26T07:26:05.822Z,16.67
2024-04-26T07:27:05.930Z,16.66
2024-04-26T07:28:05.813Z,16.60
2024-04-26T07:29:18.364Z,16.52
2024-04-26T07:30:05.846Z,16.52
2024-04-26T07:31:05.823Z,16.49
2024-04-26T07:32:05.791Z,16.46
2024-04-26T07:33:06.115Z,16.50
2024-04-26T07:34:06.009Z,16.60
2024-04-26T07:35:05.723Z,16.56
2024-04-26T07:36:05.797Z,16.57
2024-04-26T07:37:05.726Z,16.58
2024-04-26T07:38:05.713Z,16.66
2024-04-26T07:39:05.858Z,16.63
2024-04-26T07:40:05.694Z,16.49
2024-04-26T07:41:05.675Z,16.38
2024-04-26T07:42:05.862Z,16.27
2024-04-26T07:43:05.670Z,16.24
2024-04-26T07:44:05.654Z,16.27
2024-04-26T07:45:05.871Z,16.20
2024-04-26T07:46:05.664Z,16.21
2024-04-26T07:47:05.643Z,16.12
2024-04-26T07:48:05.820Z,16.15
2024-04-26T07:49:08.198Z,16.14
2024-04-26T07:50:05.745Z,16.11
2024-04-26T07:51:05.726Z,16.12
2024-04-26T07:52:05.566Z,16.14
2024-04-26T07:53:05.571Z,16.00
2024-04-26T07:54:05.693Z,15.97
2024-04-26T07:55:05.949Z,16.01
2024-04-26T07:56:05.534Z,16.08
2024-04-26T07:57:05.656Z,16.11
2024-04-26T07:58:05.521Z,16.14
2024-04-26T07:59:05.484Z,16.20
2024-04-26T08:00:05.537Z,16.31
2024-04-26T08:01:05.512Z,16.35
2024-04-26T08:02:05.466Z,16.39
2024-04-26T08:03:05.579Z,16.39
2024-04-26T08:04:05.729Z,16.33
2024-04-26T08:05:05.540Z,16.28
2024-04-26T08:06:05.460Z,16.27
2024-04-26T08:07:05.397Z,16.27
2024-04-26T08:08:05.387Z,16.27
2024-04-26T08:09:05.557Z,16.31
2024-04-26T08:10:05.383Z,16.35
2024-04-26T08:11:05.380Z,16.38
2024-04-26T08:12:05.548Z,16.31
2024-04-26T08:13:05.354Z,15.93
2024-04-26T08:14:05.350Z,15.89
2024-04-26T08:15:05.535Z,15.84
2024-04-26T08:16:05.343Z,15.75
2024-04-26T08:17:05.358Z,15.75
2024-04-26T08:18:05.531Z,15.83
2024-04-26T08:19:05.402Z,15.90
2024-04-26T08:20:05.310Z,15.96
2024-04-26T08:21:05.518Z,15.86
2024-04-26T08:22:05.296Z,15.86
2024-04-26T08:23:05.246Z,15.92
2024-04-26T08:24:05.467Z,15.92
2024-04-26T08:25:09.124Z,15.82
2024-04-26T08:26:05.436Z,15.86
2024-04-26T08:27:05.305Z,15.92
2024-04-26T08:28:05.189Z,16.02
2024-04-26T08:29:05.222Z,16.12
2024-04-26T08:30:05.276Z,16.17
2024-04-26T08:31:05.168Z,16.00
2024-04-26T08:32:05.167Z,15.96
2024-04-26T08:33:07.421Z,16.08
2024-04-26T08:34:05.289Z,16.09
2024-04-26T08:35:05.248Z,16.11
2024-04-26T08:36:05.207Z,16.05
2024-04-26T08:37:05.400Z,16.08
2024-04-26T08:38:05.081Z,16.09
2024-04-26T08:39:05.120Z,16.11
2024-04-26T08:40:05.228Z,16.17
2024-04-26T08:41:05.094Z,16.15
2024-04-26T08:42:05.072Z,16.23
2024-04-26T08:43:05.029Z,16.24
2024-04-26T08:44:05.036Z,16.25
2024-04-26T08:45:05.037Z,16.31
2024-04-26T08:46:05.003Z,16.34
2024-04-26T08:47:05.023Z,16.35
2024-04-26T08:48:05.256Z,16.35
2024-04-26T08:49:05.128Z,16.41
2024-04-26T08:50:04.954Z,16.42
2024-04-26T08:51:05.020Z,16.50
2024-04-26T08:52:04.951Z,16.56
2024-04-26T08:53:04.934Z,16.53
2024-04-26T08:54:04.993Z,16.60
2024-04-26T08:55:04.922Z,16.56
2024-04-26T08:56:04.892Z,16.52
2024-04-26T08:57:04.977Z,16.41
2024-04-26T08:58:04.877Z,16.28
2024-04-26T08:59:04.897Z,16.07
2024-04-26T09:00:05.180Z,16.00
2024-04-26T09:01:04.890Z,16.01
2024-04-26T09:02:04.845Z,16.09
2024-04-26T09:03:05.017Z,16.20
2024-04-26T09:04:05.009Z,16.28
2024-04-26T09:05:04.841Z,16.23
2024-04-26T09:06:04.896Z,16.27
2024-04-26T09:07:04.797Z,16.14
2024-04-26T09:08:04.782Z,16.12
2024-04-26T09:09:04.925Z,15.93
2024-04-26T09:10:04.770Z,15.83
2024-04-26T09:11:04.775Z,15.76
2024-04-26T09:12:04.871Z,15.87
2024-04-26T09:13:05.664Z,15.76
2024-04-26T09:14:04.745Z,15.87
2024-04-26T09:15:04.748Z,15.67
2024-04-26T09:16:04.700Z,15.54
2024-04-26T09:17:04.764Z,15.67
2024-04-26T09:18:04.915Z,15.86
2024-04-26T09:19:04.818Z,16.00
2024-04-26T09:20:04.675Z,16.12
2024-04-26T09:21:04.748Z,16.27
2024-04-26T09:22:04.625Z,16.35
2024-04-26T09:23:04.615Z,16.42
2024-04-26T09:24:04.671Z,16.53
2024-04-26T09:25:04.618Z,16.58
2024-04-26T09:26:04.579Z,16.68
2024-04-26T09:27:04.688Z,16.66
2024-04-26T09:28:04.558Z,16.60
2024-04-26T09:29:04.589Z,16.53
2024-04-26T09:30:04.809Z,16.38
2024-04-26T09:31:04.538Z,16.24
2024-04-26T09:32:13.157Z,16.15
2024-04-26T09:33:05.988Z,16.01
2024-04-26T09:34:04.736Z,16.04
2024-04-26T09:35:04.750Z,16.08
2024-04-26T09:36:05.092Z,16.20
2024-04-26T09:37:04.549Z,16.24
2024-04-26T09:38:04.462Z,16.31
2024-04-26T09:39:04.522Z,16.23
2024-04-26T09:40:04.443Z,16.20
2024-04-26T09:41:04.518Z,16.23
2024-04-26T09:42:04.593Z,16.25
2024-04-26T09:43:04.416Z,16.27
2024-04-26T09:44:04.453Z,16.31
2024-04-26T09:45:04.469Z,16.34
2024-04-26T09:46:04.394Z,16.43
2024-04-26T09:47:04.403Z,16.38
2024-04-26T09:48:04.516Z,16.25
2024-04-26T09:49:04.528Z,16.14
2024-04-26T09:50:04.348Z,16.09
2024-04-26T09:51:04.436Z,16.09
2024-04-26T09:52:04.329Z,16.07
2024-04-26T09:53:04.321Z,16.08
2024-04-26T09:54:04.504Z,16.05
2024-04-26T09:55:04.316Z,15.87
2024-04-26T09:56:04.302Z,15.78
2024-04-26T09:57:04.501Z,15.59
2024-04-26T09:58:04.260Z,15.53
2024-04-26T09:59:04.241Z,15.56
2024-04-26T10:00:04.242Z,15.54
2024-04-26T10:01:04.248Z,15.54
2024-04-26T10:02:04.251Z,15.56
2024-04-26T10:03:04.419Z,15.54
2024-04-26T10:04:04.485Z,15.54
2024-04-26T10:05:04.269Z,15.54
2024-04-26T10:06:04.266Z,15.69
2024-04-26T10:07:04.194Z,15.84
2024-04-26T10:08:04.183Z,15.82
2024-04-26T10:09:04.274Z,15.82
2024-04-26T10:10:04.157Z,15.75
2024-04-26T10:11:04.146Z,15.72
2024-04-26T10:12:04.209Z,15.57
2024-04-26T10:13:04.147Z,15.56
2024-04-26T10:14:04.120Z,15.50
2024-04-26T10:15:04.147Z,15.34
2024-04-26T10:16:04.078Z,15.31
2024-04-26T10:17:04.081Z,15.20
2024-04-26T10:18:04.252Z,15.07
2024-04-26T10:19:04.136Z,15.02
2024-04-26T10:20:04.055Z,15.02
2024-04-26T10:21:04.155Z,14.95
2024-04-26T10:22:04.025Z,15.01
2024-04-26T10:23:03.983Z,15.10
2024-04-26T10:24:04.171Z,15.19
2024-04-26T10:25:03.993Z,15.21
2024-04-26T10:26:03.960Z,15.32
2024-04-26T10:27:04.086Z,15.34
2024-04-26T10:28:03.935Z,15.39
2024-04-26T10:29:03.923Z,15.39
2024-04-26T10:30:04.309Z,15.43
2024-04-26T10:31:03.934Z,15.39
2024-04-26T10:32:03.963Z,15.36
2024-04-26T10:33:03.994Z,15.34
2024-04-26T10:34:04.288Z,15.21
2024-04-26T10:35:03.860Z,15.10
2024-04-26T10:36:03.930Z,15.09
2024-04-26T10:37:03.894Z,15.01
2024-04-26T10:38:03.882Z,15.03
2024-04-26T10:39:04.040Z,15.19
2024-04-26T10:40:03.818Z,15.21
2024-04-26T10:41:03.797Z,15.25
2024-04-26T10:42:03.915Z,15.23
2024-04-26T10:43:03.778Z,15.21
2024-04-26T10:44:03.780Z,15.21
2024-04-26T10:45:03.774Z,15.23
2024-04-26T10:46:03.748Z,15.10
2024-04-26T10:47:03.755Z,14.96
2024-04-26T10:48:03.864Z,14.98
2024-04-26T10:49:03.926Z,14.94
2024-04-26T10:50:03.804Z,14.98
2024-04-26T10:51:03.762Z,14.96
2024-04-26T10:52:03.712Z,14.96
2024-04-26T10:53:03.676Z,14.99
2024-04-26T10:54:03.884Z,15.03
2024-04-26T10:55:03.676Z,15.01
2024-04-26T10:56:03.705Z,15.01
2024-04-26T10:57:03.795Z,14.95
2024-04-26T10:58:03.629Z,14.91
2024-04-26T10:59:03.627Z,14.89
2024-04-26T11:00:03.792Z,14.91
2024-04-26T11:01:03.599Z,14.91
2024-04-26T11:02:03.573Z,14.88
2024-04-26T11:03:03.676Z,14.86
2024-04-26T11:04:03.768Z,14.88
2024-04-26T11:05:03.575Z,14.95
2024-04-26T11:06:03.650Z,15.03
2024-04-26T11:07:03.521Z,15.14
2024-04-26T11:08:03.512Z,15.28
2024-04-26T11:09:03.635Z,15.38
2024-04-26T11:10:03.540Z,15.56
2024-04-26T11:11:03.535Z,15.71
2024-04-26T11:12:03.598Z,15.74
2024-04-26T11:13:03.455Z,15.68
2024-04-26T11:14:03.447Z,15.69
2024-04-26T11:15:03.519Z,15.74
2024-04-26T11:16:03.437Z,15.75
2024-04-26T11:17:03.407Z,15.71
2024-04-26T11:18:03.573Z,15.72
2024-04-26T11:19:03.586Z,15.74
2024-04-26T11:20:03.630Z,15.74
2024-04-26T11:21:03.541Z,15.75
2024-04-26T11:22:03.433Z,15.72
2024-04-26T11:23:03.353Z,15.62
2024-04-26T11:24:03.476Z,15.54
2024-04-26T11:25:03.338Z,15.59
2024-04-26T11:26:03.307Z,15.53
2024-04-26T11:27:03.372Z,15.47
2024-04-26T11:28:03.280Z,15.41
2024-04-26T11:29:03.294Z,15.13
2024-04-26T11:30:03.419Z,14.91
2024-04-26T11:31:03.312Z,14.88
2024-04-26T11:32:03.339Z,14.91
2024-04-26T11:33:03.378Z,14.94
2024-04-26T11:34:03.362Z,14.98
2024-04-26T11:35:03.397Z,14.99
2024-04-26T11:36:03.212Z,14.98
2024-04-26T11:37:03.213Z,14.99
2024-04-26T11:38:03.214Z,15.03
2024-04-26T11:39:03.284Z,15.11
2024-04-26T11:40:03.232Z,15.16
2024-04-26T11:41:03.161Z,15.20
2024-04-26T11:42:03.185Z,15.32
2024-04-26T11:43:03.132Z,15.34
2024-04-26T11:44:03.124Z,15.39
2024-04-26T11:45:03.213Z,15.41
2024-04-26T11:46:03.115Z,15.41
2024-04-26T11:47:03.147Z,15.39
2024-04-26T11:48:03.216Z,15.43
2024-04-26T11:49:03.241Z,15.47
2024-04-26T11:50:03.425Z,15.46
2024-04-26T11:51:03.132Z,15.47
2024-04-26T11:52:03.043Z,15.53
2024-04-26T11:53:03.026Z,15.60
2024-04-26T11:54:03.113Z,15.54
2024-04-26T11:55:03.008Z,15.54
2024-04-26T11:56:03.007Z,15.68
2024-04-26T11:57:05.323Z,15.80
2024-04-26T11:58:02.986Z,15.86
2024-04-26T11:59:02.963Z,15.92
2024-04-26T12:00:03.059Z,15.96
2024-04-26T12:01:03.004Z,16.04
2024-04-26T12:02:02.919Z,16.11
2024-04-26T12:03:03.054Z,16.12
2024-04-26T12:04:03.036Z,16.12
2024-04-26T12:05:02.955Z,16.01
2024-04-26T12:06:02.939Z,15.96
2024-04-26T12:07:02.881Z,15.97
2024-04-26T12:08:02.858Z,15.89
2024-04-26T12:09:03.010Z,15.93
2024-04-26T12:10:02.830Z,15.84
2024-04-26T12:11:02.906Z,15.84
2024-04-26T12:12:02.851Z,15.83
2024-04-26T12:13:02.802Z,15.84
2024-04-26T12:14:02.844Z,15.80
2024-04-26T12:15:02.913Z,15.84
2024-04-26T12:16:02.785Z,15.83
2024-04-26T12:17:03.249Z,15.83
2024-04-26T12:18:02.876Z,15.90
2024-04-26T12:19:03.101Z,15.78
2024-04-26T12:20:02.728Z,15.69
2024-04-26T12:21:02.803Z,15.64
2024-04-26T12:22:02.734Z,15.59
2024-04-26T12:23:02.720Z,15.64
2024-04-26T12:24:02.777Z,15.59
2024-04-26T12:25:02.669Z,15.50
2024-04-26T12:26:02.682Z,15.53
2024-04-26T12:27:02.689Z,15.51
2024-04-26T12:28:02.684Z,15.54
2024-04-26T12:29:02.650Z,15.59
2024-04-26T12:30:02.697Z,15.41
2024-04-26T12:31:02.639Z,15.32
2024-04-26T12:32:02.605Z,15.39
2024-04-26T12:33:02.764Z,15.46
2024-04-26T12:34:02.904Z,15.50
2024-04-26T12:35:02.737Z,15.49
2024-04-26T12:36:02.594Z,15.57
2024-04-26T12:37:02.576Z,15.67
2024-04-26T12:38:02.547Z,15.71
2024-04-26T12:39:02.653Z,15.78
2024-04-26T12:40:02.505Z,15.87
2024-04-26T12:41:02.508Z,15.96
2024-04-26T12:42:02.548Z,16.09
2024-04-26T12:43:02.478Z,16.15
2024-04-26T12:44:02.511Z,16.15
2024-04-26T12:45:02.506Z,16.15
2024-04-26T12:46:02.456Z,16.15
2024-04-26T12:47:02.536Z,16.23
2024-04-26T12:48:02.675Z,16.25
2024-04-26T12:49:02.604Z,16.35
2024-04-26T12:50:02.444Z,16.46
2024-04-26T12:51:02.424Z,16.56
2024-04-26T12:52:02.405Z,16.61
2024-04-26T12:53:02.413Z,16.58
2024-04-26T12:54:02.417Z,16.60
2024-04-26T12:55:02.361Z,16.63
2024-04-26T12:56:02.338Z,16.63
2024-04-26T12:57:02.500Z,16.66
2024-04-26T12:58:02.308Z,16.67
2024-04-26T12:59:02.307Z,16.70
2024-04-26T13:00:02.371Z,16.73
2024-04-26T13:01:02.347Z,16.78
2024-04-26T13:02:02.352Z,16.70